sensor_id;sensor_type;location;lat;lon;timestamp;pressure;altitude;pressure_sealevel;temperature;humidity
68107;BME280;54892;47.488;19.026;2022-12-07T00:02:21;99965.38;;;2.46;87.36
68107;BME280;54892;47.488;19.026;2022-12-07T00:05:24;99959.78;;;2.42;87.46
68107;BME280;54892;47.488;19.026;2022-12-07T00:08:28;99955.78;;;2.33;87.84
68107;BME280;54892;47.488;19.026;2022-12-07T00:11:33;99965.00;;;2.28;88.48
68107;BME280;54892;47.488;19.026;2022-12-07T00:14:37;99958.16;;;2.41;87.90
68107;BME280;54892;47.488;19.026;2022-12-07T00:17:41;99944.94;;;2.42;87.39
68107;BME280;54892;47.488;19.026;2022-12-07T00:20:44;99943.34;;;2.35;88.15
68107;BME280;54892;47.488;19.026;2022-12-07T00:23:49;99948.16;;;2.38;87.41
68107;BME280;54892;47.488;19.026;2022-12-07T00:26:54;99941.94;;;2.32;88.20
68107;BME280;54892;47.488;19.026;2022-12-07T00:29:58;99931.31;;;2.07;88.99
68107;BME280;54892;47.488;19.026;2022-12-07T00:33:02;99933.94;;;2.07;89.46
68107;BME280;54892;47.488;19.026;2022-12-07T00:36:07;99928.34;;;1.96;89.89
68107;BME280;54892;47.488;19.026;2022-12-07T00:39:11;99930.53;;;2.00;90.05
68107;BME280;54892;47.488;19.026;2022-12-07T00:42:16;99927.34;;;1.91;90.60
68107;BME280;54892;47.488;19.026;2022-12-07T00:45:19;99929.34;;;1.89;90.63
68107;BME280;54892;47.488;19.026;2022-12-07T00:48:23;99933.31;;;1.91;91.07
68107;BME280;54892;47.488;19.026;2022-12-07T00:51:26;99927.72;;;2.08;89.41
68107;BME280;54892;47.488;19.026;2022-12-07T00:54:30;99930.53;;;1.86;90.02
68107;BME280;54892;47.488;19.026;2022-12-07T00:57:35;99935.53;;;1.94;89.22
68107;BME280;54892;47.488;19.026;2022-12-07T01:00:40;99921.91;;;1.86;89.41
68107;BME280;54892;47.488;19.026;2022-12-07T01:03:43;99922.31;;;1.76;89.92
68107;BME280;54892;47.488;19.026;2022-12-07T01:06:47;99926.72;;;1.82;89.27
68107;BME280;54892;47.488;19.026;2022-12-07T01:09:50;99922.50;;;1.67;89.78
68107;BME280;54892;47.488;19.026;2022-12-07T01:12:55;99921.69;;;1.74;89.98
68107;BME280;54892;47.488;19.026;2022-12-07T01:16:00;99917.84;;;1.56;90.67
68107;BME280;54892;47.488;19.026;2022-12-07T01:19:05;99916.06;;;1.50;90.97
68107;BME280;54892;47.488;19.026;2022-12-07T01:22:08;99921.28;;;1.63;90.51
68107;BME280;54892;47.488;19.026;2022-12-07T01:25:12;99916.47;;;1.60;90.67
68107;BME280;54892;47.488;19.026;2022-12-07T01:28:16;99926.88;;;1.54;91.11
68107;BME280;54892;47.488;19.026;2022-12-07T01:31:22;99911.66;;;1.64;90.38
68107;BME280;54892;47.488;19.026;2022-12-07T01:34:26;99906.09;;;1.74;90.37
68107;BME280;54892;47.488;19.026;2022-12-07T01:37:34;99906.28;;;1.72;90.20
68107;BME280;54892;47.488;19.026;2022-12-07T01:40:37;99911.91;;;1.82;90.32
68107;BME280;54892;47.488;19.026;2022-12-07T01:44:10;99910.50;;;1.87;89.20
68107;BME280;54892;47.488;19.026;2022-12-07T01:47:14;99906.50;;;1.97;88.80
68107;BME280;54892;47.488;19.026;2022-12-07T01:50:18;99903.47;;;1.80;89.35
68107;BME280;54892;47.488;19.026;2022-12-07T01:53:25;99904.31;;;1.88;89.74
68107;BME280;54892;47.488;19.026;2022-12-07T01:56:30;99904.91;;;1.76;90.23
68107;BME280;54892;47.488;19.026;2022-12-07T01:59:37;99901.50;;;2.09;90.21
68107;BME280;54892;47.488;19.026;2022-12-07T02:02:41;99898.47;;;2.33;89.73
68107;BME280;54892;47.488;19.026;2022-12-07T02:05:47;99892.06;;;2.35;89.45
68107;BME280;54892;47.488;19.026;2022-12-07T02:08:51;99885.66;;;2.24;88.87
68107;BME280;54892;47.488;19.026;2022-12-07T02:11:55;99888.88;;;2.20;88.79
68107;BME280;54892;47.488;19.026;2022-12-07T02:14:59;99884.09;;;1.96;89.29
68107;BME280;54892;47.488;19.026;2022-12-07T02:18:08;99888.47;;;1.89;89.62
68107;BME280;54892;47.488;19.026;2022-12-07T02:21:17;99884.25;;;1.95;89.33
68107;BME280;54892;47.488;19.026;2022-12-07T02:24:36;99890.28;;;1.82;90.14
68107;BME280;54892;47.488;19.026;2022-12-07T02:27:46;99893.28;;;1.79;91.22
68107;BME280;54892;47.488;19.026;2022-12-07T02:30:52;99894.87;;;1.93;90.12
68107;BME280;54892;47.488;19.026;2022-12-07T02:33:57;99898.50;;;1.99;90.05
68107;BME280;54892;47.488;19.026;2022-12-07T02:37:10;99895.09;;;1.98;89.53
68107;BME280;54892;47.488;19.026;2022-12-07T02:40:19;99897.88;;;1.97;89.51
68107;BME280;54892;47.488;19.026;2022-12-07T02:43:26;99890.50;;;1.94;89.08
68107;BME280;54892;47.488;19.026;2022-12-07T02:46:36;99889.06;;;1.91;89.86
68107;BME280;54892;47.488;19.026;2022-12-07T02:49:40;99893.09;;;1.94;89.72
68107;BME280;54892;47.488;19.026;2022-12-07T02:52:44;99887.69;;;2.09;89.33
68107;BME280;54892;47.488;19.026;2022-12-07T02:55:47;99887.06;;;2.00;90.02
68107;BME280;54892;47.488;19.026;2022-12-07T02:58:56;99886.28;;;2.13;89.31
68107;BME280;54892;47.488;19.026;2022-12-07T03:02:17;99885.28;;;2.14;89.49
68107;BME280;54892;47.488;19.026;2022-12-07T03:05:40;99876.47;;;2.02;90.51
68107;BME280;54892;47.488;19.026;2022-12-07T03:08:53;99880.25;;;2.06;90.84
68107;BME280;54892;47.488;19.026;2022-12-07T03:12:03;99873.44;;;2.11;90.54
68107;BME280;54892;47.488;19.026;2022-12-07T03:15:15;99871.84;;;2.17;90.66
68107;BME280;54892;47.488;19.026;2022-12-07T03:18:22;99872.41;;;2.26;90.14
68107;BME280;54892;47.488;19.026;2022-12-07T03:21:33;99877.25;;;2.22;90.30
68107;BME280;54892;47.488;19.026;2022-12-07T03:24:42;99873.03;;;2.28;90.45
68107;BME280;54892;47.488;19.026;2022-12-07T03:27:50;99873.56;;;2.64;88.89
68107;BME280;54892;47.488;19.026;2022-12-07T03:31:00;99875.38;;;2.56;89.01
68107;BME280;54892;47.488;19.026;2022-12-07T03:34:08;99875.56;;;2.62;88.63
68107;BME280;54892;47.488;19.026;2022-12-07T03:37:17;99879.22;;;2.40;90.09
68107;BME280;54892;47.488;19.026;2022-12-07T03:40:24;99876.63;;;2.40;90.49
68107;BME280;54892;47.488;19.026;2022-12-07T03:43:29;99878.81;;;2.43;90.26
68107;BME280;54892;47.488;19.026;2022-12-07T03:46:36;99874.03;;;2.20;91.57
68107;BME280;54892;47.488;19.026;2022-12-07T03:49:50;99876.81;;;2.39;90.85
68107;BME280;54892;47.488;19.026;2022-12-07T03:52:57;99887.22;;;2.39;91.25
68107;BME280;54892;47.488;19.026;2022-12-07T03:56:02;99882.62;;;2.41;91.68
68107;BME280;54892;47.488;19.026;2022-12-07T03:59:07;99891.25;;;2.48;91.75
68107;BME280;54892;47.488;19.026;2022-12-07T04:02:12;99897.19;;;2.62;91.52
68107;BME280;54892;47.488;19.026;2022-12-07T04:05:18;99898.00;;;2.63;91.42
68107;BME280;54892;47.488;19.026;2022-12-07T04:08:21;99898.41;;;2.66;91.56
68107;BME280;54892;47.488;19.026;2022-12-07T04:11:25;99896.00;;;2.65;91.70
68107;BME280;54892;47.488;19.026;2022-12-07T04:14:28;99890.59;;;2.59;92.16
68107;BME280;54892;47.488;19.026;2022-12-07T04:17:31;99885.94;;;2.75;92.32
68107;BME280;54892;47.488;19.026;2022-12-07T04:20:36;99894.75;;;2.81;93.11
68107;BME280;54892;47.488;19.026;2022-12-07T04:23:40;99891.69;;;2.97;93.08
68107;BME280;54892;47.488;19.026;2022-12-07T04:26:44;99898.41;;;3.18;92.47
68107;BME280;54892;47.488;19.026;2022-12-07T04:29:47;99900.38;;;3.23;92.88
68107;BME280;54892;47.488;19.026;2022-12-07T04:32:50;99900.22;;;3.18;93.13
68107;BME280;54892;47.488;19.026;2022-12-07T04:35:55;99906.19;;;3.25;93.27
68107;BME280;54892;47.488;19.026;2022-12-07T04:38:58;99907.16;;;3.31;93.23
68107;BME280;54892;47.488;19.026;2022-12-07T04:42:02;99899.88;;;3.40;92.78
68107;BME280;54892;47.488;19.026;2022-12-07T04:45:07;99898.84;;;3.47;92.68
68107;BME280;54892;47.488;19.026;2022-12-07T04:48:11;99901.31;;;3.35;93.58
68107;BME280;54892;47.488;19.026;2022-12-07T04:51:18;99903.31;;;3.40;93.67
68107;BME280;54892;47.488;19.026;2022-12-07T04:54:23;99905.69;;;3.42;93.69
68107;BME280;54892;47.488;19.026;2022-12-07T04:57:26;99905.66;;;3.48;93.61
68107;BME280;54892;47.488;19.026;2022-12-07T05:00:30;99909.87;;;3.49;93.63
68107;BME280;54892;47.488;19.026;2022-12-07T05:03:33;99912.88;;;3.46;94.07
68107;BME280;54892;47.488;19.026;2022-12-07T05:06:38;99901.28;;;3.42;94.40
68107;BME280;54892;47.488;19.026;2022-12-07T05:09:42;99902.84;;;3.50;94.45
68107;BME280;54892;47.488;19.026;2022-12-07T05:12:45;99895.19;;;3.55;93.91
68107;BME280;54892;47.488;19.026;2022-12-07T05:15:51;99899.69;;;3.41;95.07
68107;BME280;54892;47.488;19.026;2022-12-07T05:18:54;99902.44;;;3.46;95.36
68107;BME280;54892;47.488;19.026;2022-12-07T05:21:59;99899.16;;;3.64;94.92
68107;BME280;54892;47.488;19.026;2022-12-07T05:25:03;99891.69;;;3.68;95.06
68107;BME280;54892;47.488;19.026;2022-12-07T05:28:07;99895.66;;;3.71;95.31
68107;BME280;54892;47.488;19.026;2022-12-07T05:31:10;99887.09;;;3.63;95.68
68107;BME280;54892;47.488;19.026;2022-12-07T05:34:14;99872.28;;;3.57;96.99
68107;BME280;54892;47.488;19.026;2022-12-07T05:37:18;99881.28;;;3.61;96.72
68107;BME280;54892;47.488;19.026;2022-12-07T05:40:22;99878.72;;;3.55;97.16
68107;BME280;54892;47.488;19.026;2022-12-07T05:43:25;99877.25;;;3.65;96.34
68107;BME280;54892;47.488;19.026;2022-12-07T05:46:28;99880.34;;;3.56;96.35
68107;BME280;54892;47.488;19.026;2022-12-07T05:49:32;99881.94;;;3.57;96.56
68107;BME280;54892;47.488;19.026;2022-12-07T05:52:37;99883.00;;;3.49;96.57
68107;BME280;54892;47.488;19.026;2022-12-07T05:55:41;99891.97;;;3.53;96.19
68107;BME280;54892;47.488;19.026;2022-12-07T05:58:44;99890.25;;;3.40;96.61
68107;BME280;54892;47.488;19.026;2022-12-07T06:02:06;99880.78;;;3.46;96.39
68107;BME280;54892;47.488;19.026;2022-12-07T06:05:10;99889.25;;;3.41;95.79
68107;BME280;54892;47.488;19.026;2022-12-07T06:08:14;99883.72;;;3.24;96.52
68107;BME280;54892;47.488;19.026;2022-12-07T06:11:18;99887.94;;;3.25;96.57
68107;BME280;54892;47.488;19.026;2022-12-07T06:14:39;99889.53;;;3.26;97.27
68107;BME280;54892;47.488;19.026;2022-12-07T06:17:43;99895.56;;;3.27;97.07
68107;BME280;54892;47.488;19.026;2022-12-07T06:20:46;99897.34;;;3.26;96.97
68107;BME280;54892;47.488;19.026;2022-12-07T06:23:51;99900.63;;;3.15;96.54
68107;BME280;54892;47.488;19.026;2022-12-07T06:26:54;99899.59;;;3.23;95.76
68107;BME280;54892;47.488;19.026;2022-12-07T06:29:58;99899.31;;;3.31;95.77
68107;BME280;54892;47.488;19.026;2022-12-07T06:33:07;99891.31;;;3.32;95.26
68107;BME280;54892;47.488;19.026;2022-12-07T06:36:11;99890.34;;;3.20;95.90
68107;BME280;54892;47.488;19.026;2022-12-07T06:39:16;99890.91;;;3.29;96.55
68107;BME280;54892;47.488;19.026;2022-12-07T06:42:19;99901.37;;;3.22;97.25
68107;BME280;54892;47.488;19.026;2022-12-07T06:45:23;99908.59;;;3.20;97.37
68107;BME280;54892;47.488;19.026;2022-12-07T06:48:26;99911.03;;;3.22;97.57
68107;BME280;54892;47.488;19.026;2022-12-07T06:51:29;99907.78;;;3.26;97.64
68107;BME280;54892;47.488;19.026;2022-12-07T06:54:34;99914.00;;;3.25;97.77
68107;BME280;54892;47.488;19.026;2022-12-07T06:57:38;99906.75;;;3.34;97.67
68107;BME280;54892;47.488;19.026;2022-12-07T07:00:41;99914.16;;;3.37;97.01
68107;BME280;54892;47.488;19.026;2022-12-07T07:03:45;99916.50;;;3.45;96.65
68107;BME280;54892;47.488;19.026;2022-12-07T07:06:48;99912.56;;;3.36;97.62
68107;BME280;54892;47.488;19.026;2022-12-07T07:09:56;99916.50;;;3.45;97.08
68107;BME280;54892;47.488;19.026;2022-12-07T07:12:59;99913.91;;;3.45;97.30
68107;BME280;54892;47.488;19.026;2022-12-07T07:16:02;99905.88;;;3.47;97.35
68107;BME280;54892;47.488;19.026;2022-12-07T07:19:06;99909.63;;;3.58;96.59
68107;BME280;54892;47.488;19.026;2022-12-07T07:22:09;99917.28;;;3.53;97.13
68107;BME280;54892;47.488;19.026;2022-12-07T07:25:14;99913.19;;;3.63;96.16
68107;BME280;54892;47.488;19.026;2022-12-07T07:28:18;99911.63;;;3.88;94.45
68107;BME280;54892;47.488;19.026;2022-12-07T07:31:21;99910.69;;;3.75;94.97
68107;BME280;54892;47.488;19.026;2022-12-07T07:34:25;99912.97;;;3.65;95.94
68107;BME280;54892;47.488;19.026;2022-12-07T07:37:28;99916.19;;;3.67;95.83
68107;BME280;54892;47.488;19.026;2022-12-07T07:40:34;99914.88;;;3.51;97.24
68107;BME280;54892;47.488;19.026;2022-12-07T07:43:38;99908.34;;;3.67;96.49
68107;BME280;54892;47.488;19.026;2022-12-07T07:46:41;99912.81;;;3.60;96.73
68107;BME280;54892;47.488;19.026;2022-12-07T07:49:44;99901.56;;;3.59;96.88
68107;BME280;54892;47.488;19.026;2022-12-07T07:52:49;99910.75;;;3.69;96.57
68107;BME280;54892;47.488;19.026;2022-12-07T07:55:54;99919.47;;;3.56;97.82
68107;BME280;54892;47.488;19.026;2022-12-07T07:58:56;99912.28;;;3.76;96.81
68107;BME280;54892;47.488;19.026;2022-12-07T08:02:00;99914.53;;;3.73;97.20
68107;BME280;54892;47.488;19.026;2022-12-07T08:05:04;99915.03;;;3.88;96.77
68107;BME280;54892;47.488;19.026;2022-12-07T08:08:08;99921.31;;;3.80;97.75
68107;BME280;54892;47.488;19.026;2022-12-07T08:11:14;99920.47;;;3.87;97.70
68107;BME280;54892;47.488;19.026;2022-12-07T08:14:18;99917.87;;;4.12;96.85
68107;BME280;54892;47.488;19.026;2022-12-07T08:17:21;99928.16;;;4.07;96.31
68107;BME280;54892;47.488;19.026;2022-12-07T08:20:29;99921.69;;;4.35;94.72
68107;BME280;54892;47.488;19.026;2022-12-07T08:23:32;99925.66;;;4.19;94.99
68107;BME280;54892;47.488;19.026;2022-12-07T08:26:41;99932.34;;;4.33;95.21
68107;BME280;54892;47.488;19.026;2022-12-07T08:29:45;99920.13;;;4.27;95.11
68107;BME280;54892;47.488;19.026;2022-12-07T08:32:48;99930.41;;;4.22;95.85
68107;BME280;54892;47.488;19.026;2022-12-07T08:35:51;99940.03;;;4.28;95.19
68107;BME280;54892;47.488;19.026;2022-12-07T08:38:55;99942.81;;;4.33;95.97
68107;BME280;54892;47.488;19.026;2022-12-07T08:42:19;99939.47;;;4.45;95.22
68107;BME280;54892;47.488;19.026;2022-12-07T08:45:25;99937.91;;;4.62;94.51
68107;BME280;54892;47.488;19.026;2022-12-07T08:48:29;99947.84;;;4.53;95.11
68107;BME280;54892;47.488;19.026;2022-12-07T08:51:33;99944.88;;;4.68;94.47
68107;BME280;54892;47.488;19.026;2022-12-07T08:54:38;99942.91;;;4.64;93.83
68107;BME280;54892;47.488;19.026;2022-12-07T08:57:44;99938.34;;;4.78;93.27
68107;BME280;54892;47.488;19.026;2022-12-07T09:00:47;99948.56;;;4.79;93.75
68107;BME280;54892;47.488;19.026;2022-12-07T09:03:51;99938.97;;;4.92;92.89
68107;BME280;54892;47.488;19.026;2022-12-07T09:06:55;99935.00;;;4.89;93.42
68107;BME280;54892;47.488;19.026;2022-12-07T09:09:58;99949.25;;;4.93;92.34
68107;BME280;54892;47.488;19.026;2022-12-07T09:13:04;99936.78;;;5.07;91.34
68107;BME280;54892;47.488;19.026;2022-12-07T09:16:07;99938.31;;;5.15;90.39
68107;BME280;54892;47.488;19.026;2022-12-07T09:19:10;99919.97;;;5.33;88.26
68107;BME280;54892;47.488;19.026;2022-12-07T09:22:13;99927.97;;;5.39;87.38
68107;BME280;54892;47.488;19.026;2022-12-07T09:25:17;99919.44;;;5.43;86.12
68107;BME280;54892;47.488;19.026;2022-12-07T09:28:22;99916.03;;;5.43;85.93
68107;BME280;54892;47.488;19.026;2022-12-07T09:31:25;99913.22;;;5.56;85.09
68107;BME280;54892;47.488;19.026;2022-12-07T09:34:30;99918.47;;;5.56;84.33
68107;BME280;54892;47.488;19.026;2022-12-07T09:37:34;99928.59;;;5.64;82.34
68107;BME280;54892;47.488;19.026;2022-12-07T09:40:37;99918.56;;;5.61;81.93
68107;BME280;54892;47.488;19.026;2022-12-07T09:43:43;99912.50;;;5.49;81.59
68107;BME280;54892;47.488;19.026;2022-12-07T09:46:48;99911.19;;;5.58;83.20
68107;BME280;54892;47.488;19.026;2022-12-07T09:49:53;99913.91;;;5.63;82.84
68107;BME280;54892;47.488;19.026;2022-12-07T09:53:07;99910.41;;;5.70;80.62
68107;BME280;54892;47.488;19.026;2022-12-07T09:56:12;99899.12;;;5.81;80.17
68107;BME280;54892;47.488;19.026;2022-12-07T09:59:18;99896.22;;;5.89;81.46
68107;BME280;54892;47.488;19.026;2022-12-07T10:02:25;99895.66;;;6.11;77.04
68107;BME280;54892;47.488;19.026;2022-12-07T10:05:35;99898.97;;;6.06;78.69
68107;BME280;54892;47.488;19.026;2022-12-07T10:08:40;99905.25;;;6.05;78.85
68107;BME280;54892;47.488;19.026;2022-12-07T10:12:06;99900.44;;;6.02;79.20
68107;BME280;54892;47.488;19.026;2022-12-07T10:15:11;99898.47;;;5.98;80.73
68107;BME280;54892;47.488;19.026;2022-12-07T10:18:27;99891.66;;;5.97;81.58
68107;BME280;54892;47.488;19.026;2022-12-07T10:21:30;99893.25;;;5.98;83.16
68107;BME280;54892;47.488;19.026;2022-12-07T10:24:34;99891.22;;;6.00;82.20
68107;BME280;54892;47.488;19.026;2022-12-07T10:27:39;99896.47;;;6.12;78.79
68107;BME280;54892;47.488;19.026;2022-12-07T10:30:52;99892.03;;;6.12;80.03
68107;BME280;54892;47.488;19.026;2022-12-07T10:34:00;99887.72;;;6.06;79.67
68107;BME280;54892;47.488;19.026;2022-12-07T10:37:14;99886.34;;;6.15;79.98
68107;BME280;54892;47.488;19.026;2022-12-07T10:40:32;99880.63;;;6.18;80.10
68107;BME280;54892;47.488;19.026;2022-12-07T10:43:36;99881.09;;;6.27;79.03
68107;BME280;54892;47.488;19.026;2022-12-07T10:47:07;99870.38;;;6.29;77.86
68107;BME280;54892;47.488;19.026;2022-12-07T10:50:36;99875.16;;;6.32;77.85
68107;BME280;54892;47.488;19.026;2022-12-07T10:53:52;99885.97;;;6.35;77.58
68107;BME280;54892;47.488;19.026;2022-12-07T10:57:23;99882.78;;;6.33;77.62
68107;BME280;54892;47.488;19.026;2022-12-07T11:00:35;99883.81;;;6.32;77.45
68107;BME280;54892;47.488;19.026;2022-12-07T11:03:55;99887.00;;;6.34;76.95
68107;BME280;54892;47.488;19.026;2022-12-07T11:07:06;99875.16;;;6.32;76.00
68107;BME280;54892;47.488;19.026;2022-12-07T11:10:16;99872.09;;;6.23;75.50
68107;BME280;54892;47.488;19.026;2022-12-07T11:13:28;99872.09;;;6.35;76.13
68107;BME280;54892;47.488;19.026;2022-12-07T11:16:41;99866.72;;;6.30;76.17
68107;BME280;54892;47.488;19.026;2022-12-07T11:20:00;99865.81;;;6.36;76.50
68107;BME280;54892;47.488;19.026;2022-12-07T11:23:14;99869.91;;;6.44;75.09
68107;BME280;54892;47.488;19.026;2022-12-07T11:26:29;99868.66;;;6.46;75.22
68107;BME280;54892;47.488;19.026;2022-12-07T11:33:11;99860.66;;;6.41;74.15
68107;BME280;54892;47.488;19.026;2022-12-07T11:36:33;99859.19;;;6.45;75.40
68107;BME280;54892;47.488;19.026;2022-12-07T11:39:41;99858.94;;;6.47;74.47
68107;BME280;54892;47.488;19.026;2022-12-07T11:42:52;99856.09;;;6.48;74.50
68107;BME280;54892;47.488;19.026;2022-12-07T11:45:59;99861.47;;;6.53;74.40
68107;BME280;54892;47.488;19.026;2022-12-07T11:49:10;99862.25;;;6.54;75.09
68107;BME280;54892;47.488;19.026;2022-12-07T11:52:21;99865.75;;;6.60;74.46
68107;BME280;54892;47.488;19.026;2022-12-07T11:55:30;99866.13;;;6.51;72.42
68107;BME280;54892;47.488;19.026;2022-12-07T11:58:44;99870.44;;;6.58;73.24
68107;BME280;54892;47.488;19.026;2022-12-07T12:01:53;99877.00;;;6.72;72.68
68107;BME280;54892;47.488;19.026;2022-12-07T12:05:05;99868.50;;;6.65;73.11
68107;BME280;54892;47.488;19.026;2022-12-07T12:08:15;99851.72;;;6.66;73.12
68107;BME280;54892;47.488;19.026;2022-12-07T12:11:57;99846.56;;;6.71;73.73
68107;BME280;54892;47.488;19.026;2022-12-07T12:15:32;99847.28;;;6.66;74.61
68107;BME280;54892;47.488;19.026;2022-12-07T12:18:50;99836.81;;;6.54;73.85
68107;BME280;54892;47.488;19.026;2022-12-07T12:22:06;99832.94;;;6.57;73.20
68107;BME280;54892;47.488;19.026;2022-12-07T12:25:20;99830.09;;;6.47;73.37
68107;BME280;54892;47.488;19.026;2022-12-07T12:28:29;99822.72;;;6.44;73.69
68107;BME280;54892;47.488;19.026;2022-12-07T12:31:36;99818.00;;;6.58;71.79
68107;BME280;54892;47.488;19.026;2022-12-07T12:34:57;99811.66;;;6.42;73.01
68107;BME280;54892;47.488;19.026;2022-12-07T12:38:24;99807.56;;;6.34;73.14
68107;BME280;54892;47.488;19.026;2022-12-07T12:41:57;99805.88;;;6.28;73.82
68107;BME280;54892;47.488;19.026;2022-12-07T12:45:28;99808.50;;;6.28;74.00
68107;BME280;54892;47.488;19.026;2022-12-07T12:48:36;99809.44;;;6.21;74.20
68107;BME280;54892;47.488;19.026;2022-12-07T12:51:41;99806.31;;;6.36;72.85
68107;BME280;54892;47.488;19.026;2022-12-07T12:54:58;99811.56;;;6.24;74.12
68107;BME280;54892;47.488;19.026;2022-12-07T12:58:30;99810.78;;;6.36;73.16
68107;BME280;54892;47.488;19.026;2022-12-07T13:01:42;99806.69;;;6.28;74.08
68107;BME280;54892;47.488;19.026;2022-12-07T13:04:52;99819.09;;;6.33;74.09
68107;BME280;54892;47.488;19.026;2022-12-07T13:07:58;99827.06;;;6.38;73.99
68107;BME280;54892;47.488;19.026;2022-12-07T13:11:17;99824.66;;;6.36;74.09
68107;BME280;54892;47.488;19.026;2022-12-07T13:14:53;99821.78;;;6.50;73.79
68107;BME280;54892;47.488;19.026;2022-12-07T13:18:22;99821.13;;;6.43;74.00
68107;BME280;54892;47.488;19.026;2022-12-07T13:21:41;99824.41;;;6.50;72.70
68107;BME280;54892;47.488;19.026;2022-12-07T13:24:46;99824.97;;;6.40;70.63
68107;BME280;54892;47.488;19.026;2022-12-07T13:27:55;99832.06;;;6.39;70.38
68107;BME280;54892;47.488;19.026;2022-12-07T13:31:29;99829.00;;;6.31;71.01
68107;BME280;54892;47.488;19.026;2022-12-07T13:34:35;99831.25;;;6.39;71.08
68107;BME280;54892;47.488;19.026;2022-12-07T13:37:38;99831.88;;;6.17;71.54
68107;BME280;54892;47.488;19.026;2022-12-07T13:40:42;99833.34;;;6.13;71.66
68107;BME280;54892;47.488;19.026;2022-12-07T13:43:52;99838.59;;;6.13;71.46
68107;BME280;54892;47.488;19.026;2022-12-07T13:47:03;99835.31;;;6.06;71.78
68107;BME280;54892;47.488;19.026;2022-12-07T13:50:22;99840.19;;;6.02;71.49
68107;BME280;54892;47.488;19.026;2022-12-07T13:53:26;99842.22;;;5.88;72.23
68107;BME280;54892;47.488;19.026;2022-12-07T13:56:35;99851.09;;;5.87;72.17
68107;BME280;54892;47.488;19.026;2022-12-07T13:59:42;99848.47;;;5.87;72.44
68107;BME280;54892;47.488;19.026;2022-12-07T14:02:56;99847.00;;;5.91;72.20
68107;BME280;54892;47.488;19.026;2022-12-07T14:06:25;99845.75;;;5.94;72.26
68107;BME280;54892;47.488;19.026;2022-12-07T14:09:29;99849.06;;;5.89;72.98
68107;BME280;54892;47.488;19.026;2022-12-07T14:12:36;99841.78;;;5.91;73.52
68107;BME280;54892;47.488;19.026;2022-12-07T14:15:40;99838.00;;;5.87;73.60
68107;BME280;54892;47.488;19.026;2022-12-07T14:18:44;99838.09;;;5.92;73.45
68107;BME280;54892;47.488;19.026;2022-12-07T14:22:05;99849.28;;;5.88;73.75
68107;BME280;54892;47.488;19.026;2022-12-07T14:25:19;99843.56;;;5.79;74.36
68107;BME280;54892;47.488;19.026;2022-12-07T14:28:27;99838.00;;;5.75;74.36
68107;BME280;54892;47.488;19.026;2022-12-07T14:31:32;99841.28;;;5.71;74.61
68107;BME280;54892;47.488;19.026;2022-12-07T14:34:36;99836.84;;;5.59;75.29
68107;BME280;54892;47.488;19.026;2022-12-07T14:37:41;99836.16;;;5.52;75.66
68107;BME280;54892;47.488;19.026;2022-12-07T14:40:45;99845.34;;;5.43;76.27
68107;BME280;54892;47.488;19.026;2022-12-07T14:43:48;99851.47;;;5.37;76.62
68107;BME280;54892;47.488;19.026;2022-12-07T14:47:01;99850.22;;;5.27;77.09
68107;BME280;54892;47.488;19.026;2022-12-07T14:50:25;99854.16;;;5.18;77.77
68107;BME280;54892;47.488;19.026;2022-12-07T14:53:30;99863.09;;;5.10;77.77
68107;BME280;54892;47.488;19.026;2022-12-07T14:56:36;99859.66;;;4.98;77.94
68107;BME280;54892;47.488;19.026;2022-12-07T14:59:39;99860.31;;;4.93;78.10
68107;BME280;54892;47.488;19.026;2022-12-07T15:02:46;99856.09;;;4.92;78.28
68107;BME280;54892;47.488;19.026;2022-12-07T15:05:51;99864.63;;;4.87;78.35
68107;BME280;54892;47.488;19.026;2022-12-07T15:08:54;99862.94;;;4.93;78.37
68107;BME280;54892;47.488;19.026;2022-12-07T15:12:01;99863.94;;;4.92;78.60
68107;BME280;54892;47.488;19.026;2022-12-07T15:15:06;99865.63;;;4.86;78.84
68107;BME280;54892;47.488;19.026;2022-12-07T15:18:09;99867.66;;;5.03;78.45
68107;BME280;54892;47.488;19.026;2022-12-07T15:21:14;99873.47;;;4.86;78.70
68107;BME280;54892;47.488;19.026;2022-12-07T15:24:19;99876.81;;;4.75;79.00
68107;BME280;54892;47.488;19.026;2022-12-07T15:27:23;99878.87;;;4.54;79.83
68107;BME280;54892;47.488;19.026;2022-12-07T15:30:26;99882.22;;;4.43;80.07
68107;BME280;54892;47.488;19.026;2022-12-07T15:33:30;99886.91;;;4.34;80.27
68107;BME280;54892;47.488;19.026;2022-12-07T15:36:34;99881.53;;;4.29;80.62
68107;BME280;54892;47.488;19.026;2022-12-07T15:39:38;99885.03;;;4.41;80.39
68107;BME280;54892;47.488;19.026;2022-12-07T15:42:42;99886.59;;;4.24;80.77
68107;BME280;54892;47.488;19.026;2022-12-07T15:45:49;99893.13;;;4.15;80.85
68107;BME280;54892;47.488;19.026;2022-12-07T15:48:52;99897.03;;;4.24;79.74
68107;BME280;54892;47.488;19.026;2022-12-07T15:51:57;99898.66;;;4.25;79.53
68107;BME280;54892;47.488;19.026;2022-12-07T15:55:01;99903.78;;;4.13;79.48
68107;BME280;54892;47.488;19.026;2022-12-07T15:58:05;99903.22;;;4.11;79.71
68107;BME280;54892;47.488;19.026;2022-12-07T16:01:13;99906.00;;;4.09;79.43
68107;BME280;54892;47.488;19.026;2022-12-07T16:04:16;99905.72;;;3.99;79.24
68107;BME280;54892;47.488;19.026;2022-12-07T16:07:22;99894.13;;;3.88;79.48
68107;BME280;54892;47.488;19.026;2022-12-07T16:10:25;99900.59;;;3.86;79.24
68107;BME280;54892;47.488;19.026;2022-12-07T16:13:29;99905.72;;;3.99;78.90
68107;BME280;54892;47.488;19.026;2022-12-07T16:16:32;99901.16;;;4.13;79.61
68107;BME280;54892;47.488;19.026;2022-12-07T16:19:36;99899.72;;;3.92;80.43
68107;BME280;54892;47.488;19.026;2022-12-07T16:22:42;99890.03;;;3.74;81.01
68107;BME280;54892;47.488;19.026;2022-12-07T16:25:46;99893.44;;;3.74;80.82
68107;BME280;54892;47.488;19.026;2022-12-07T16:28:50;99889.63;;;3.77;80.37
68107;BME280;54892;47.488;19.026;2022-12-07T16:31:54;99896.38;;;3.85;79.58
68107;BME280;54892;47.488;19.026;2022-12-07T16:34:57;99896.16;;;3.86;79.45
68107;BME280;54892;47.488;19.026;2022-12-07T16:38:02;99906.25;;;3.83;79.90